createdAt,value
2023-04-26T00:02:05.673Z,99.90
2023-04-26T00:04:35.426Z,99.90
2023-04-26T00:07:03.524Z,99.90
2023-04-26T00:09:31.808Z,99.90
2023-04-26T00:11:59.611Z,99.90
2023-04-26T00:14:27.264Z,99.90
2023-04-26T00:16:55.245Z,99.90
2023-04-26T00:19:24.262Z,99.90
2023-04-26T00:21:51.734Z,99.90
2023-04-26T00:24:19.308Z,99.90
2023-04-26T00:26:46.894Z,99.90
2023-04-26T00:29:14.347Z,99.90
2023-04-26T00:31:42.358Z,99.90
2023-04-26T00:34:09.848Z,99.90
2023-04-26T00:36:37.506Z,99.90
2023-04-26T00:39:05.149Z,99.90
2023-04-26T00:41:33.604Z,99.90
2023-04-26T00:44:01.398Z,99.90
2023-04-26T00:46:29.581Z,99.90
2023-04-26T00:48:57.636Z,99.90
2023-04-26T00:51:25.371Z,99.90
2023-04-26T00:53:53.744Z,99.90
2023-04-26T00:56:22.407Z,99.90
2023-04-26T00:58:50.135Z,99.90
2023-04-26T01:01:18.001Z,99.90
2023-04-26T01:03:47.058Z,99.90
2023-04-26T01:06:14.914Z,99.90
2023-04-26T01:08:42.670Z,99.90
2023-04-26T01:11:10.563Z,99.90
2023-04-26T01:13:38.780Z,99.90
2023-04-26T01:16:08.946Z,99.90
2023-04-26T01:18:37.104Z,99.90
2023-04-26T01:21:05.270Z,99.90
2023-04-26T01:23:32.957Z,99.90
2023-04-26T01:26:00.492Z,99.90
2023-04-26T01:28:28.220Z,99.90
2023-04-26T01:30:56.071Z,99.90
2023-04-26T01:33:23.563Z,99.90
2023-04-26T01:35:51.187Z,99.90
2023-04-26T01:38:20.306Z,99.90
2023-04-26T01:40:48.147Z,99.90
2023-04-26T01:43:18.476Z,99.90
2023-04-26T01:45:48.816Z,99.90
2023-04-26T01:48:16.438Z,99.90
2023-04-26T01:50:44.040Z,99.90
2023-04-26T01:53:11.764Z,99.90
2023-04-26T01:55:39.337Z,99.90
2023-04-26T01:58:06.849Z,99.90
2023-04-26T02:00:34.523Z,99.90
2023-04-26T02:03:02.038Z,99.90
2023-04-26T02:05:29.695Z,99.90
2023-04-26T02:07:57.434Z,99.90
2023-04-26T02:10:24.927Z,99.90
2023-04-26T02:12:52.387Z,99.90
2023-04-26T02:15:20.144Z,99.90
2023-04-26T02:17:49.723Z,99.90
2023-04-26T02:20:17.278Z,99.90
2023-04-26T02:22:44.920Z,99.90
2023-04-26T02:25:12.534Z,99.90
2023-04-26T02:27:40.042Z,99.90
2023-04-26T02:30:08.543Z,99.90
2023-04-26T02:32:36.599Z,99.90
2023-04-26T02:35:05.399Z,99.90
2023-04-26T02:37:34.410Z,99.90
2023-04-26T02:40:02.007Z,99.90
2023-04-26T02:42:29.613Z,99.90
2023-04-26T02:44:57.600Z,99.90
2023-04-26T02:47:27.085Z,99.90
2023-04-26T02:49:54.540Z,99.90
2023-04-26T02:52:22.035Z,99.90
2023-04-26T02:54:49.667Z,99.90
2023-04-26T02:57:17.171Z,99.90
2023-04-26T02:59:44.641Z,99.90
2023-04-26T03:02:12.428Z,99.90
2023-04-26T03:04:40.181Z,99.90
2023-04-26T03:07:07.868Z,99.90
2023-04-26T03:09:38.419Z,99.90
2023-04-26T03:12:09.382Z,99.90
2023-04-26T03:14:37.186Z,99.90
2023-04-26T03:17:04.794Z,99.90
2023-04-26T03:19:32.720Z,99.90
2023-04-26T03:22:00.414Z,99.90
2023-04-26T03:24:28.095Z,99.90
2023-04-26T03:26:55.598Z,99.90
2023-04-26T03:29:23.039Z,99.90
2023-04-26T03:31:50.768Z,99.90
2023-04-26T03:34:18.385Z,99.90
2023-04-26T03:36:46.035Z,99.90
2023-04-26T03:39:13.488Z,99.90
2023-04-26T03:41:41.197Z,99.90
2023-04-26T03:44:08.791Z,99.90
2023-04-26T03:46:36.600Z,99.90
2023-04-26T03:49:04.228Z,99.90
2023-04-26T03:51:31.739Z,99.90
2023-04-26T03:53:59.834Z,99.90
2023-04-26T03:56:27.682Z,99.90
2023-04-26T03:58:55.222Z,99.90
2023-04-26T04:01:22.721Z,99.90
2023-04-26T04:03:50.456Z,99.90
2023-04-26T04:06:18.228Z,99.90
2023-04-26T04:08:45.888Z,99.90
2023-04-26T04:11:13.951Z,99.90
2023-04-26T04:13:41.483Z,99.90
2023-04-26T04:16:10.479Z,99.90
2023-04-26T04:18:38.279Z,99.90
2023-04-26T04:21:05.908Z,99.90
2023-04-26T04:23:33.520Z,99.90
2023-04-26T04:26:01.113Z,99.90
2023-04-26T04:28:29.953Z,99.90
2023-04-26T04:30:57.532Z,99.90
2023-04-26T04:33:28.793Z,99.90
2023-04-26T04:35:56.406Z,99.90
2023-04-26T04:38:24.345Z,99.90
2023-04-26T04:40:52.450Z,99.90
2023-04-26T04:43:20.281Z,99.90
2023-04-26T04:45:49.732Z,99.90
2023-04-26T04:48:18.846Z,99.90
2023-04-26T04:50:46.315Z,99.90
2023-04-26T04:53:14.000Z,99.90
2023-04-26T04:55:41.554Z,99.90
2023-04-26T04:58:09.031Z,99.90
2023-04-26T05:00:38.354Z,99.90
2023-04-26T05:03:06.060Z,99.90
2023-04-26T05:05:34.254Z,99.90
2023-04-26T05:08:01.781Z,99.90
2023-04-26T05:10:29.317Z,99.90
2023-04-26T05:12:56.949Z,99.90
2023-04-26T05:15:24.388Z,99.90
2023-04-26T05:17:52.050Z,99.90
2023-04-26T05:20:19.651Z,99.90
2023-04-26T05:22:47.465Z,99.90
2023-04-26T05:25:15.315Z,99.90
2023-04-26T05:27:42.771Z,99.90
2023-04-26T05:30:11.163Z,99.90
2023-04-26T05:32:38.757Z,99.90
2023-04-26T05:35:06.691Z,99.90
2023-04-26T05:37:35.854Z,99.90
2023-04-26T05:40:04.800Z,99.90
2023-04-26T05:42:32.264Z,99.90
2023-04-26T05:44:59.834Z,99.90
2023-04-26T05:47:27.478Z,99.90
2023-04-26T05:49:54.972Z,99.90
2023-04-26T05:52:22.503Z,99.90
2023-04-26T05:54:50.081Z,99.90
2023-04-26T05:57:19.110Z,99.90
2023-04-26T05:59:47.423Z,99.90
2023-04-26T06:02:15.051Z,99.90
2023-04-26T06:04:42.711Z,99.90
2023-04-26T06:07:10.665Z,99.90
2023-04-26T06:09:38.277Z,99.90
2023-04-26T06:12:06.186Z,99.50
2023-04-26T06:14:33.811Z,98.70
2023-04-26T06:17:01.621Z,98.80
2023-04-26T06:19:29.187Z,97.40
2023-04-26T06:21:57.696Z,94.10
2023-04-26T06:24:26.146Z,92.90
2023-04-26T06:26:54.002Z,93.40
2023-04-26T06:29:22.265Z,94.70
2023-04-26T06:31:49.727Z,96.00
2023-04-26T06:34:17.169Z,97.10
2023-04-26T06:36:44.712Z,97.60
2023-04-26T06:39:12.304Z,97.60
2023-04-26T06:41:39.892Z,97.60
2023-04-26T06:44:07.496Z,99.00
2023-04-26T06:46:35.170Z,99.90
2023-04-26T06:49:02.631Z,99.90
2023-04-26T06:51:30.269Z,99.90
2023-04-26T06:53:59.214Z,99.90
2023-04-26T06:56:26.821Z,99.90
2023-04-26T06:59:04.658Z,99.90
2023-04-26T07:01:35.648Z,99.90
2023-04-26T07:04:04.895Z,99.90
2023-04-26T07:06:32.646Z,99.90
2023-04-26T07:09:01.546Z,99.90
2023-04-26T07:11:29.532Z,99.90
2023-04-26T07:13:57.678Z,99.90
2023-04-26T07:16:25.249Z,99.90
2023-04-26T07:18:58.564Z,99.90
2023-04-26T07:21:29.045Z,99.90
2023-04-26T07:23:57.286Z,99.90
2023-04-26T07:26:26.841Z,99.90
2023-04-26T07:28:54.812Z,99.90
2023-04-26T07:31:22.471Z,99.90
2023-04-26T07:33:50.070Z,99.90
2023-04-26T07:36:17.892Z,99.90
2023-04-26T07:38:45.501Z,99.90
2023-04-26T07:41:13.259Z,99.90
2023-04-26T07:43:40.727Z,99.90
2023-04-26T07:46:08.341Z,99.90
2023-04-26T07:48:36.212Z,99.90
2023-04-26T07:51:11.672Z,99.90
2023-04-26T07:53:40.016Z,99.90
2023-04-26T07:56:08.661Z,99.90
2023-04-26T07:58:37.438Z,99.90
2023-04-26T08:01:05.159Z,99.60
2023-04-26T08:03:33.480Z,95.40
2023-04-26T08:06:01.900Z,95.40
2023-04-26T08:08:29.871Z,92.80
2023-04-26T08:10:57.467Z,94.70
2023-04-26T08:13:27.013Z,92.10
2023-04-26T08:15:56.123Z,91.50
2023-04-26T08:18:23.682Z,92.60
2023-04-26T08:20:51.180Z,93.20
2023-04-26T08:23:19.731Z,93.00
2023-04-26T08:25:48.047Z,91.40
2023-04-26T08:28:16.347Z,92.20
2023-04-26T08:30:44.028Z,90.40
2023-04-26T08:33:11.655Z,89.10
2023-04-26T08:35:39.118Z,83.10
2023-04-26T08:38:06.600Z,83.20
2023-04-26T08:40:34.452Z,84.30
2023-04-26T08:43:02.145Z,79.10
2023-04-26T08:45:29.678Z,72.40
2023-04-26T08:48:06.124Z,71.60
2023-04-26T08:50:34.669Z,65.40
2023-04-26T08:53:02.130Z,58.20
2023-04-26T08:55:30.656Z,60.40
2023-04-26T08:57:58.659Z,58.40
2023-04-26T09:00:27.530Z,59.10
2023-04-26T09:02:55.748Z,55.60
2023-04-26T09:05:27.353Z,54.30
2023-04-26T09:08:05.375Z,52.90
2023-04-26T09:10:33.020Z,58.50
2023-04-26T09:13:00.532Z,55.80
2023-04-26T09:15:28.100Z,60.70
2023-04-26T09:17:55.851Z,62.40
2023-04-26T09:20:24.677Z,57.20
2023-04-26T09:22:53.966Z,56.90
2023-04-26T09:25:30.205Z,57.50
2023-04-26T09:27:58.580Z,55.00
2023-04-26T09:30:27.470Z,52.10
2023-04-26T09:32:59.240Z,48.50
2023-04-26T09:35:32.287Z,47.40
2023-04-26T09:38:10.495Z,43.90
2023-04-26T09:40:45.279Z,45.70
2023-04-26T09:43:17.762Z,47.90
2023-04-26T09:45:55.167Z,46.80
2023-04-26T09:48:30.958Z,50.20
2023-04-26T09:51:18.809Z,52.60
2023-04-26T09:53:48.088Z,52.40
2023-04-26T09:56:21.098Z,48.90
2023-04-26T09:58:48.868Z,48.60
2023-04-26T10:01:18.377Z,49.70
2023-04-26T10:03:47.244Z,53.80
2023-04-26T10:06:15.918Z,51.40
2023-04-26T10:08:44.209Z,50.80
2023-04-26T10:11:12.897Z,50.20
2023-04-26T10:13:42.099Z,52.20
2023-04-26T10:16:10.502Z,55.10
2023-04-26T10:18:38.228Z,50.20
2023-04-26T10:21:20.786Z,52.40
2023-04-26T10:23:49.718Z,53.60
2023-04-26T10:26:54.991Z,52.20
2023-04-26T10:29:28.101Z,44.10
2023-04-26T10:32:07.342Z,46.30
2023-04-26T10:34:37.253Z,46.40
2023-04-26T10:37:11.664Z,46.40
2023-04-26T10:39:41.098Z,49.80
2023-04-26T10:42:26.753Z,46.30
2023-04-26T10:44:55.960Z,44.80
2023-04-26T10:51:08.848Z,47.40
2023-04-26T10:53:45.630Z,48.80
2023-04-26T10:56:33.795Z,46.50
2023-04-26T10:59:36.265Z,42.90
2023-04-26T11:02:04.479Z,44.30
2023-04-26T11:04:53.687Z,44.50
2023-04-26T11:07:40.205Z,42.90
2023-04-26T11:10:10.917Z,47.80
2023-04-26T11:12:42.503Z,47.00
2023-04-26T11:15:13.126Z,47.00
2023-04-26T11:17:40.800Z,45.90
2023-04-26T11:20:16.654Z,45.10
2023-04-26T11:22:44.127Z,46.80
2023-04-26T11:25:13.890Z,47.80
2023-04-26T11:27:43.954Z,45.70
2023-04-26T11:30:12.580Z,44.10
2023-04-26T11:32:40.053Z,45.40
2023-04-26T11:35:08.063Z,45.30
2023-04-26T11:37:36.511Z,47.10
2023-04-26T11:40:04.306Z,46.70
2023-04-26T11:42:32.993Z,47.70
2023-04-26T11:45:01.776Z,46.50
2023-04-26T11:47:32.442Z,50.90
2023-04-26T11:50:01.262Z,47.80
2023-04-26T11:52:29.156Z,48.30
2023-04-26T11:55:04.671Z,52.30
2023-04-26T11:57:36.791Z,52.30
2023-04-26T12:00:14.304Z,51.50
2023-04-26T12:02:46.797Z,49.90
2023-04-26T12:05:27.166Z,54.50
2023-04-26T12:07:59.152Z,55.00
2023-04-26T12:10:28.737Z,54.20
2023-04-26T12:12:58.697Z,54.90
2023-04-26T12:15:33.276Z,60.80
2023-04-26T12:18:12.830Z,59.80
2023-04-26T12:20:42.647Z,57.40
2023-04-26T12:23:14.041Z,51.90
2023-04-26T12:25:51.873Z,53.70
2023-04-26T12:28:19.580Z,55.80
2023-04-26T12:30:47.149Z,54.50
2023-04-26T12:33:17.429Z,56.80
2023-04-26T12:35:46.458Z,57.10
2023-04-26T12:38:14.234Z,58.60
2023-04-26T12:40:44.488Z,55.80
2023-04-26T12:43:12.382Z,57.50
2023-04-26T12:45:39.887Z,57.50
2023-04-26T12:48:07.430Z,58.10
2023-04-26T12:50:35.087Z,58.40
2023-04-26T12:53:02.541Z,52.50
2023-04-26T12:55:32.045Z,53.10
2023-04-26T12:58:00.688Z,56.10
2023-04-26T13:00:28.398Z,56.10
2023-04-26T13:02:56.259Z,53.30
2023-04-26T13:05:25.062Z,53.80
2023-04-26T13:07:52.792Z,56.30
2023-04-26T13:10:20.380Z,55.70
2023-04-26T13:12:47.871Z,56.00
2023-04-26T13:15:17.326Z,54.50
2023-04-26T13:17:45.938Z,56.40
2023-04-26T13:20:13.987Z,56.50
2023-04-26T13:22:43.353Z,55.50
2023-04-26T13:25:11.433Z,56.50
2023-04-26T13:27:39.273Z,56.70
2023-04-26T13:30:07.461Z,56.10
2023-04-26T13:32:35.198Z,56.20
2023-04-26T13:35:03.105Z,56.50
2023-04-26T13:37:31.815Z,57.20
2023-04-26T13:39:59.888Z,56.00
2023-04-26T13:42:27.691Z,57.10
2023-04-26T13:44:55.266Z,59.20
2023-04-26T13:47:22.950Z,62.60
2023-04-26T13:49:51.316Z,59.90
2023-04-26T13:52:18.936Z,59.60
2023-04-26T13:54:46.464Z,58.20
2023-04-26T13:57:14.084Z,57.30
2023-04-26T13:59:41.627Z,57.10
2023-04-26T14:02:09.465Z,57.30
2023-04-26T14:04:37.257Z,55.70
2023-04-26T14:07:05.580Z,56.80
2023-04-26T14:09:33.706Z,58.60
2023-04-26T14:14:34.652Z,57.40
2023-04-26T14:17:02.228Z,58.40
2023-04-26T14:19:30.037Z,59.50
2023-04-26T14:21:57.553Z,59.20
2023-04-26T14:24:25.180Z,60.00
2023-04-26T14:26:52.670Z,58.30
2023-04-26T14:29:20.175Z,59.00
2023-04-26T14:31:47.953Z,60.80
2023-04-26T14:34:15.733Z,62.10
2023-04-26T14:36:43.188Z,62.50
2023-04-26T14:39:10.696Z,63.50
2023-04-26T14:41:38.192Z,62.90
2023-04-26T14:44:05.772Z,61.50
2023-04-26T14:46:33.441Z,59.60
2023-04-26T14:49:00.949Z,60.90
2023-04-26T14:51:28.837Z,58.90
2023-04-26T14:53:56.276Z,60.20
2023-04-26T14:56:23.998Z,60.30
2023-04-26T14:58:51.466Z,59.00
2023-04-26T15:01:18.964Z,58.40
2023-04-26T15:03:47.192Z,60.90
2023-04-26T15:06:14.734Z,58.90
2023-04-26T15:08:42.171Z,58.50
2023-04-26T15:11:09.752Z,58.00
2023-04-26T15:13:37.254Z,58.70
2023-04-26T15:16:07.780Z,60.40
2023-04-26T15:18:35.756Z,59.90
2023-04-26T15:21:03.327Z,60.60
2023-04-26T15:23:31.206Z,62.10
2023-04-26T15:26:03.127Z,61.40
2023-04-26T15:28:30.662Z,61.60
2023-04-26T15:31:04.770Z,63.70
2023-04-26T15:33:32.583Z,61.20
2023-04-26T15:36:00.063Z,62.00
2023-04-26T15:38:27.672Z,61.90
2023-04-26T15:40:55.190Z,62.50
2023-04-26T15:43:22.764Z,61.50
2023-04-26T15:45:50.410Z,62.60
2023-04-26T15:48:18.003Z,63.20
2023-04-26T15:50:46.456Z,62.00
2023-04-26T15:53:13.954Z,63.10
2023-04-26T15:55:41.667Z,62.30
2023-04-26T15:58:09.187Z,62.60
2023-04-26T16:00:36.787Z,63.10
2023-04-26T16:03:04.473Z,62.30
2023-04-26T16:05:32.166Z,60.00
2023-04-26T16:07:59.845Z,60.60
2023-04-26T16:10:27.727Z,60.30
2023-04-26T16:12:55.233Z,59.50
2023-04-26T16:15:22.809Z,61.60
2023-04-26T16:17:50.362Z,61.20
2023-04-26T16:20:18.001Z,62.30
2023-04-26T16:22:45.505Z,62.50
2023-04-26T16:25:13.018Z,61.50
2023-04-26T16:27:40.558Z,61.70
2023-04-26T16:30:08.752Z,62.00
2023-04-26T16:32:36.440Z,65.20
2023-04-26T16:35:04.634Z,65.10
2023-04-26T16:37:32.183Z,63.90
2023-04-26T16:39:59.686Z,65.00
2023-04-26T16:42:27.204Z,64.40
2023-04-26T16:44:55.935Z,63.80
2023-04-26T16:47:23.459Z,63.90
2023-04-26T16:49:51.860Z,64.80
2023-04-26T16:52:19.430Z,65.30
2023-04-26T16:54:46.948Z,66.60
2023-04-26T16:57:14.510Z,68.30
2023-04-26T16:59:42.032Z,68.30
2023-04-26T17:02:09.538Z,67.50
2023-04-26T17:04:37.403Z,69.30
2023-04-26T17:07:04.933Z,68.70
2023-04-26T17:09:32.445Z,70.00
2023-04-26T17:12:00.050Z,69.00
2023-04-26T17:14:27.602Z,67.80
2023-04-26T17:16:55.100Z,67.10
2023-04-26T17:19:22.881Z,68.30
2023-04-26T17:21:50.454Z,67.50
2023-04-26T17:24:17.981Z,67.20
2023-04-26T17:26:47.064Z,67.70
2023-04-26T17:29:14.707Z,67.50
2023-04-26T17:31:42.243Z,68.60
2023-04-26T17:34:10.652Z,69.10
2023-04-26T17:36:38.168Z,69.60
2023-04-26T17:39:05.629Z,69.20
2023-04-26T17:41:33.162Z,70.30
2023-04-26T17:44:00.691Z,70.80
2023-04-26T17:46:28.224Z,70.70
2023-04-26T17:48:56.049Z,70.90
2023-04-26T17:51:23.773Z,71.10
2023-04-26T17:53:51.632Z,72.50
2023-04-26T17:56:19.202Z,72.20
2023-04-26T17:58:46.699Z,73.40
2023-04-26T18:01:14.374Z,73.10
2023-04-26T18:03:42.204Z,73.70
2023-04-26T18:06:09.768Z,74.60
2023-04-26T18:08:37.662Z,75.90
2023-04-26T18:11:05.477Z,77.20
2023-04-26T18:13:33.111Z,77.70
2023-04-26T18:16:00.875Z,78.10
2023-04-26T18:18:28.409Z,78.60
2023-04-26T18:20:55.926Z,79.30
2023-04-26T18:23:23.480Z,80.10
2023-04-26T18:25:51.119Z,80.70
2023-04-26T18:28:18.652Z,80.90
2023-04-26T18:30:46.239Z,81.60
2023-04-26T18:33:14.152Z,83.00
2023-04-26T18:35:41.704Z,83.70
2023-04-26T18:38:09.215Z,84.50
2023-04-26T18:40:36.945Z,85.70
2023-04-26T18:43:04.392Z,86.50
2023-04-26T18:45:32.700Z,85.30
2023-04-26T18:48:00.247Z,85.90
2023-04-26T18:50:27.795Z,87.40
2023-04-26T18:52:55.280Z,87.20
2023-04-26T18:55:23.218Z,86.50
2023-04-26T18:57:50.719Z,87.80
2023-04-26T19:00:19.039Z,89.00
2023-04-26T19:02:46.681Z,89.10
2023-04-26T19:05:14.543Z,89.80
2023-04-26T19:07:42.158Z,90.40
2023-04-26T19:10:10.326Z,90.80
2023-04-26T19:12:37.790Z,91.10
2023-04-26T19:15:05.768Z,92.10
2023-04-26T19:17:33.653Z,93.00
2023-04-26T19:20:01.343Z,93.50
2023-04-26T19:22:29.860Z,93.20
2023-04-26T19:24:57.468Z,93.20
2023-04-26T19:27:25.105Z,93.50
2023-04-26T19:29:52.719Z,94.30
2023-04-26T19:32:23.151Z,94.30
2023-04-26T19:34:50.669Z,94.30
2023-04-26T19:37:18.915Z,94.70
2023-04-26T19:39:46.556Z,95.30
2023-04-26T19:42:14.004Z,96.20
2023-04-26T19:44:41.532Z,96.30
2023-04-26T19:47:09.398Z,96.30
2023-04-26T19:49:37.070Z,96.10
2023-04-26T19:52:04.654Z,96.50
2023-04-26T19:54:32.586Z,97.40
2023-04-26T19:57:00.157Z,97.60
2023-04-26T19:59:27.645Z,98.00
2023-04-26T20:01:55.440Z,98.50
2023-04-26T20:04:23.059Z,98.40
2023-04-26T20:06:50.958Z,98.90
2023-04-26T20:09:18.500Z,99.10
2023-04-26T20:11:45.924Z,99.90
2023-04-26T20:14:13.360Z,99.40
2023-04-26T20:16:40.910Z,99.80
2023-04-26T20:19:08.532Z,99.90
2023-04-26T20:21:36.286Z,99.70
2023-04-26T20:24:03.970Z,99.90
2023-04-26T20:26:31.482Z,99.90
2023-04-26T20:28:58.932Z,99.90
2023-04-26T20:31:26.534Z,99.90
2023-04-26T20:33:53.958Z,99.90
2023-04-26T20:36:21.485Z,99.90
2023-04-26T20:38:49.042Z,99.90
2023-04-26T20:41:16.641Z,99.90
2023-04-26T20:43:44.501Z,99.90
2023-04-26T20:46:12.150Z,99.90
2023-04-26T20:48:39.719Z,99.90
2023-04-26T20:51:07.195Z,99.90
2023-04-26T20:53:34.693Z,99.90
2023-04-26T20:56:02.275Z,99.90
2023-04-26T20:58:30.164Z,99.90
2023-04-26T21:00:59.615Z,99.90
2023-04-26T21:03:27.377Z,99.90
2023-04-26T21:05:55.035Z,99.90
2023-04-26T21:08:22.782Z,99.90
2023-04-26T21:10:50.260Z,99.90
2023-04-26T21:13:17.755Z,99.90
2023-04-26T21:15:45.427Z,99.90
2023-04-26T21:18:12.885Z,99.90
2023-04-26T21:20:40.335Z,99.90
2023-04-26T21:23:07.848Z,99.90
2023-04-26T21:25:35.324Z,99.90
2023-04-26T21:28:03.371Z,99.90
2023-04-26T21:30:31.562Z,99.90
2023-04-26T21:32:59.057Z,99.90
2023-04-26T21:35:26.559Z,99.90
2023-04-26T21:37:54.278Z,99.90
2023-04-26T21:40:21.856Z,99.90
2023-04-26T21:43:01.512Z,99.90
2023-04-26T21:45:31.824Z,99.90
2023-04-26T21:47:59.280Z,99.90
2023-04-26T21:50:26.861Z,99.90
2023-04-26T21:52:54.397Z,99.90
2023-04-26T21:55:21.969Z,99.90
2023-04-26T21:57:49.415Z,99.90
2023-04-26T22:00:17.537Z,99.90
2023-04-26T22:02:45.161Z,99.90
2023-04-26T22:05:12.922Z,99.90
2023-04-26T22:07:41.491Z,99.90
2023-04-26T22:10:09.563Z,99.90
2023-04-26T22:12:37.130Z,99.90
2023-04-26T22:15:05.239Z,99.90
2023-04-26T22:17:32.741Z,99.90
2023-04-26T22:20:00.323Z,99.90
2023-04-26T22:22:27.913Z,99.90
2023-04-26T22:24:55.464Z,99.90
2023-04-26T22:27:22.941Z,99.90
2023-04-26T22:29:50.435Z,99.90
2023-04-26T22:32:18.150Z,99.90
2023-04-26T22:34:45.672Z,99.90
2023-04-26T22:37:20.200Z,99.90
2023-04-26T22:39:49.290Z,99.90
2023-04-26T22:42:16.951Z,99.90
2023-04-26T22:44:44.468Z,99.90
2023-04-26T22:47:11.969Z,99.90
2023-04-26T22:49:39.818Z,99.90
2023-04-26T22:52:14.240Z,99.90
2023-04-26T22:54:47.865Z,99.90
2023-04-26T22:57:15.471Z,99.90
2023-04-26T22:59:43.084Z,99.90
2023-04-26T23:02:12.192Z,99.90
2023-04-26T23:04:39.752Z,99.90
2023-04-26T23:07:07.646Z,99.90
2023-04-26T23:09:35.588Z,99.90
2023-04-26T23:12:03.658Z,99.90
2023-04-26T23:14:31.745Z,99.90
2023-04-26T23:16:59.323Z,99.90
2023-04-26T23:19:26.946Z,99.90
2023-04-26T23:21:54.452Z,99.90
2023-04-26T23:24:22.262Z,99.90
2023-04-26T23:26:49.711Z,99.90
2023-04-26T23:29:17.299Z,99.90
2023-04-26T23:31:44.919Z,99.90
2023-04-26T23:34:12.445Z,99.90
2023-04-26T23:36:39.913Z,99.90
2023-04-26T23:39:07.451Z,99.90
2023-04-26T23:41:34.974Z,99.90
2023-04-26T23:44:02.521Z,99.90
2023-04-26T23:46:30.279Z,99.90
2023-04-26T23:48:57.754Z,99.90
2023-04-26T23:51:25.505Z,99.90
2023-04-26T23:53:53.227Z,99.90
2023-04-26T23:56:20.692Z,99.90
2023-04-26T23:58:48.197Z,99.90
